Hlavní strana
METAR-TAF:

METAR-TAF

Letiště :

Letiště Bělehrad

Bělehrad, Srbsko

zeměpisná šířka: 44-49N, zeměpisná délka: 020-17E, výška: 96 m

Aktuální stav počasí

Zpráva byla vytvořena před 15 minutami, v 06:00 UTC
Severní vítr 3 kt
Teplota 1°C
Vlhkost vzduchu 100%
Tlak 1022 hPa
Viditelnost: 3000 m
kouřmo

METAR: LYBE 160600Z 01003KT 3000 BR NSC 01/01 Q1022 TEMPO 2000

Čas: 07:15 (06:15 UTC)

Předpověď počasí

Zpráva byla vytvořena před 1 hodinou a 15 minutami, v 05:00 UTC
Předpověď platná od 16 v 06 UTC do 17 v 06 UTC
Jihojihovýchodní vítr 5 kt
Viditelnost 10 km a více
Žádná oblačnost pod 1500 m, nevyskytují se cumulonimby.
Dočasný
od 16 v 06 UTC do 16 v 08 UTC
Viditelnost: 4000 m
kouřmo
Změna
od 17 v 00 UTC do 17 v 02 UTC
Viditelnost: 3000 m
kouřmo

TAF: LYBE 160500Z 1606/1706 15005KT CAVOK TX15/1613Z TN02/1706Z TEMPO 1606/1608 4000 BR BECMG 1700/1702 3000 BR

Stav a předpovědi počasí z více než 4 000 letišť (zprávy METAR a TAF).

Červené a žluté tečky na mapě představují dostupné meteorologické stanice.

Když kurzor umístíte na tečku, zobrazí se název stanice.

Pak kliknutím zobrazíte stav a předpověď počasí.

Chcete-li změnit mapu, kliknutím na zelené tlačítko se znaménkem +mapu přiblížíte, kliknutím na zelené tlačítko se znaménkem – mapu oddálíte a kliknutím na zelené šipky přejdete na sousední mapy.


METAR-TAF: